Latest Weather Observations for Norseman Airport

IDW60801

Issued at 9:13 pm WST Monday 25 January 2021 (issued every 10 minutes, with the page automatically refreshed every 10 minutes)

About weather observations | Map of weather stations | Latest weather observations for WA | Other Formats
Station Details ID: 012009 Name: NORSEMAN AERO Lat: -32.21 Lon: 121.75 Height: 262.5 m
Data from the previous 72 hours. | See also: Recent months at Norseman Airport
Date/Time
WST
Temp
°C
App
Temp
°C
Dew
Point
°C
Rel
Hum
%
Delta-T
°C
Wind Press
QNH
hPa
Press
MSL
hPa
Rain since
9am
mm
Dir  Spd
km/h
Gust
km/h
Spd
kts
Gust
kts
25/09:00pm 20.2 16.6 10.6 54 5.3 SSE 20 33 11 18 1009.5 1008.2 0.0
25/08:30pm 20.8 17.2 10.6 52 5.6 SSE 20 28 11 15 1009.1 1007.7 0.0
25/08:00pm 21.5 17.6 10.9 51 5.9 SSE 22 33 12 18 1008.8 1007.4 0.0
25/07:30pm 22.5 18.8 10.0 45 6.9 SSE 20 33 11 18 1008.3 1006.9 0.0
25/07:00pm 23.4 19.6 9.8 42 7.5 SSE 20 33 11 18 1008.1 1006.7 0.0
25/06:30pm 24.8 21.0 9.9 39 8.3 S 20 30 11 16 1007.6 1006.2 0.0
25/06:00pm 25.6 22.1 10.2 38 8.7 SSE 19 28 10 15 1007.3 1005.9 0.0
25/05:30pm 25.5 21.7 9.7 37 8.8 SSE 20 30 11 16 1007.0 1005.7 0.0
25/05:00pm 26.4 22.9 10.1 36 9.2 SSE 19 28 10 15 1006.8 1005.5 0.0
25/04:30pm 26.3 23.5 10.0 36 9.2 S 15 22 8 12 1006.6 1005.3 0.0
25/04:00pm 26.5 24.4 9.8 35 9.4 ESE 11 20 6 11 1006.4 1005.1 0.0
25/03:30pm 26.4 24.4 10.1 36 9.2 SSE 11 17 6 9 1006.6 1005.3 0.0
25/03:00pm 26.6 25.0 10.3 36 9.2 ESE 9 17 5 9 1006.7 1005.4 0.0
25/02:30pm 26.4 23.2 10.1 36 9.2 SSE 17 26 9 14 1007.0 1005.7 0.0
25/02:00pm 25.5 24.0 10.5 39 8.5 SSE 9 17 5 9 1007.2 1005.8 0.0
25/01:30pm 25.9 22.9 10.5 38 8.7 SE 17 26 9 14 1007.4 1006.0 0.0
25/01:00pm 26.1 23.4 10.3 37 8.9 S 15 26 8 14 1007.6 1006.2 0.0
25/12:30pm 24.9 21.3 10.4 40 8.1 S 20 32 11 17 1007.9 1006.5 0.0
25/12:00pm 25.1 22.6 10.9 41 8.1 SSE 15 28 8 15 1008.2 1006.8 0.0
25/11:30am 24.8 21.5 11.0 42 7.8 SE 19 32 10 17 1008.5 1007.1 0.0
25/11:00am 24.7 21.3 10.6 41 8.0 S 19 32 10 17 1008.7 1007.3 0.0
25/10:30am 23.1 20.0 10.2 44 7.2 SSE 17 26 9 14 1008.9 1007.5 0.0
25/10:00am 22.5 18.8 9.6 44 7.1 SSE 19 28 10 15 1009.2 1007.8 0.0
25/09:30am 21.7 19.3 11.4 52 5.8 SSE 15 24 8 13 1009.3 1007.9 0.0
25/09:00am 20.9 19.5 13.4 62 4.4 SSE 13 20 7 11 1009.5 1008.2 0.0
25/08:30am 20.0 19.3 14.4 70 3.3 SSW 11 26 6 14 1009.5 1008.2 0.0
25/08:00am 18.4 17.7 14.3 77 2.4 S 11 19 6 10 1009.6 1008.3 0.0
25/07:30am 17.2 15.9 14.7 85 1.5 S 15 20 8 11 1009.6 1008.3 0.0
25/07:00am 16.5 15.7 15.0 91 0.9 S 13 17 7 9 1009.4 1008.0 0.0
25/06:30am 16.0 14.7 14.9 93 0.6 SSW 15 22 8 12 1009.1 1007.7 0.0
25/06:00am 15.4 14.3 14.3 93 0.6 SSW 13 17 7 9 1008.7 1007.3 0.0
25/05:30am 14.4 13.6 13.9 97 0.3 SSW 11 17 6 9 1008.3 1006.9 0.0
25/05:00am 13.7 12.2 13.1 96 0.3 SSW 13 15 7 8 1007.9 1006.5 0.0
25/04:30am 13.7 12.2 13.1 96 0.3 SSW 13 17 7 9 1007.5 1006.1 0.0
25/04:00am 13.8 12.6 12.9 94 0.5 S 11 15 6 8 1007.2 1005.8 0.0
25/03:30am 13.8 12.5 12.5 92 0.7 S 11 13 6 7 1006.8 1005.5 0.0
25/03:00am 14.4 13.9 12.6 89 1.0 S 7 11 4 6 1006.7 1005.4 0.0
25/02:30am 14.8 14.0 12.8 88 1.1 S 9 9 5 5 1006.8 1005.5 0.0
25/02:00am 14.9 14.0 12.6 86 1.3 SSW 9 11 5 6 1006.8 1005.5 0.0
25/01:30am 15.5 14.6 12.6 83 1.6 SSW 9 11 5 6 1006.7 1005.4 0.0
25/01:00am 16.1 15.1 12.3 78 2.1 SSW 9 11 5 6 1006.6 1005.3 0.0
25/12:30am 16.8 15.8 12.3 75 2.5 S 9 9 5 5 1006.5 1005.2 0.0
25/12:00am 17.7 17.2 12.6 72 2.9 S 7 9 4 5 1006.5 1005.2 0.0
 
Date/Time
WST
Temp
°C
App
Temp
°C
Dew
Point
°C
Rel
Hum
%
Delta-T
°C
Wind Press
QNH
hPa
Press
MSL
hPa
Rain since
9am
mm
Dir  Spd
km/h
Gust
km/h
Spd
kts
Gust
kts
24/11:30pm 18.6 17.2 13.5 72 2.9 S 13 17 7 9 1006.4 1005.1 0.0
24/11:00pm 18.9 17.6 13.7 72 3.0 S 13 17 7 9 1006.5 1005.2 0.0
24/10:30pm 19.4 17.6 13.3 68 3.5 S 15 20 8 11 1006.4 1005.1 0.0
24/10:00pm 20.0 18.1 13.0 64 4.0 S 15 24 8 13 1006.3 1005.0 0.0
24/09:30pm 20.7 18.5 12.1 58 4.9 S 15 20 8 11 1006.4 1005.1 0.0
24/09:00pm 21.4 18.6 11.4 53 5.6 S 17 26 9 14 1005.9 1004.5 0.0
24/08:30pm 22.1 19.3 11.5 51 6.0 S 17 22 9 12 1005.7 1004.3 0.0
24/08:00pm 22.6 20.1 12.3 52 5.9 SSE 17 24 9 13 1005.1 1003.7 0.0
24/07:30pm 23.2 19.6 11.9 49 6.5 S 22 35 12 19 1004.8 1003.4 0.0
24/07:00pm 24.1 21.1 12.7 49 6.7 S 20 33 11 18 1004.2 1002.8 0.0
24/06:30pm 24.8 21.8 12.4 46 7.2 S 20 32 11 17 1003.6 1002.2 0.0
24/06:00pm 25.1 22.0 13.3 48 7.0 SSE 22 33 12 18 1003.4 1002.0 0.0
24/05:30pm 25.5 22.3 14.3 50 6.7 SSE 24 32 13 17 1003.0 1001.7 0.0
24/05:00pm 25.6 23.3 14.1 49 6.9 S 19 32 10 17 1002.7 1001.3 0.0
24/04:30pm 26.0 23.6 14.5 49 6.9 S 20 32 11 17 1002.7 1001.3 0.0
24/04:00pm 25.7 22.9 14.2 49 6.9 S 22 33 12 18 1002.8 1001.5 0.0
24/03:30pm 25.7 23.3 16.5 56 5.7 S 24 35 13 19 1003.2 1001.8 0.0
24/03:00pm 24.1 21.6 17.1 65 4.4 SSW 26 37 14 20 1003.6 1002.2 0.0
24/02:30pm 22.3 20.4 17.7 75 2.9 SSW 24 33 13 18 1003.9 1002.5 0.0
24/02:00pm 21.4 20.0 18.0 81 2.1 SSW 22 32 12 17 1004.2 1002.8 0.0
24/01:30pm 21.4 19.7 18.0 81 2.1 SSW 24 32 13 17 1004.2 1002.8 0.0
24/01:00pm 22.0 20.9 18.6 81 2.2 SSW 22 32 12 17 1003.9 1002.5 0.0
24/12:30pm 21.8 21.0 18.4 81 2.2 S 20 28 11 15 1004.1 1002.7 0.0
24/12:00pm 22.3 22.4 19.1 82 2.1 S 17 24 9 13 1004.0 1002.6 0.0
24/11:30am 21.5 21.9 18.9 85 1.7 S 15 20 8 11 1004.0 1002.6 0.0
24/11:00am 21.4 21.9 19.3 88 1.3 S 15 24 8 13 1004.1 1002.7 0.0
24/10:30am 20.6 20.8 19.3 92 0.8 S 17 24 9 13 1004.2 1002.8 0.0
24/10:00am 20.3 21.5 19.8 97 0.3 S 13 17 7 9 1004.4 1003.0 0.0
24/09:30am 19.9 21.1 19.9 100 0.0 SSE 13 17 7 9 1004.4 1003.0 0.0
24/09:00am 19.6 20.3 19.6 100 0.0 SE 15 20 8 11 1004.4 1003.0 2.6
24/08:30am 19.1 19.9 19.1 100 0.0 SSE 13 20 7 11 1004.5 1003.1 2.6
24/08:00am 18.6 19.2 18.6 100 0.0 SSE 13 20 7 11 1004.6 1003.2 2.6
24/07:30am 18.3 18.4 18.3 100 0.0 SSE 15 20 8 11 1004.8 1003.4 2.6
24/07:00am 18.1 18.9 18.1 100 0.0 SSE 11 17 6 9 1004.8 1003.4 2.6
24/06:30am 17.9 18.6 17.9 100 0.0 S 11 15 6 8 1004.5 1003.1 2.6
24/06:00am 17.6 17.8 17.6 100 0.0 S 13 20 7 11 1004.2 1002.8 2.6
24/05:30am 18.1 18.9 18.1 100 0.0 S 11 15 6 8 1003.8 1002.4 2.6
24/05:00am 18.2 18.2 18.2 100 0.0 SSW 15 20 8 11 1003.5 1002.1 2.6
24/04:30am 18.4 18.9 18.4 100 0.0 SSW 13 19 7 10 1003.2 1001.8 2.6
24/04:00am 18.5 19.1 18.5 100 0.0 SSW 13 19 7 10 1002.8 1001.5 2.6
24/03:30am 18.7 20.1 18.7 100 0.0 S 9 11 5 6 1002.4 1001.0 2.6
24/03:00am 18.8 20.3 18.8 100 0.0 S 9 15 5 8 1002.5 1001.1 2.6
24/02:30am 19.1 20.3 19.1 100 0.0 SSW 11 13 6 7 1002.7 1001.3 2.6
24/02:00am 19.5 20.5 19.5 100 0.0 SSW 13 19 7 10 1002.9 1001.6 2.6
24/01:30am 20.2 20.4 20.2 100 0.0 SW 19 22 10 12 1002.9 1001.6 2.6
24/01:00am 21.0 23.1 21.0 100 0.0 SW 11 13 6 7 1002.8 1001.5 2.6
24/12:30am 21.3 24.3 21.3 100 0.0 NNE 7 9 4 5 1002.7 1001.3 2.6
24/12:00am 21.5 24.5 21.2 98 0.2 NE 7 9 4 5 1002.7 1001.3 2.6
 
Date/Time
WST
Temp
°C
App
Temp
°C
Dew
Point
°C
Rel
Hum
%
Delta-T
°C
Wind Press
QNH
hPa
Press
MSL
hPa
Rain since
9am
mm
Dir  Spd
km/h
Gust
km/h
Spd
kts
Gust
kts
23/11:30pm 22.1 25.8 20.7 92 0.9 NE 2 6 1 3 1002.7 1001.3 2.6
23/11:00pm 22.3 25.8 20.4 89 1.2 NE 2 7 1 4 1002.5 1001.1 2.6
23/10:30pm 22.3 24.4 20.2 88 1.4 NE 9 13 5 7 1002.5 1001.1 2.6
23/10:00pm 22.7 24.0 20.2 86 1.6 NNE 13 19 7 10 1002.4 1001.0 2.6
23/09:30pm 22.8 25.0 20.3 86 1.6 NNE 9 13 5 7 1002.3 1000.9 2.6
23/09:00pm 22.5 22.8 20.4 88 1.4 E 19 28 10 15 1001.7 1000.3 2.6
23/08:30pm 22.8 21.3 20.3 86 1.6 ENE 28 39 15 21 1001.4 1000.0 2.6
23/08:00pm 22.6 22.1 20.7 89 1.3 E 24 37 13 20 1001.6 1000.2 2.6
23/07:30pm 22.4 23.2 21.4 94 0.7 E 19 28 10 15 1001.4 1000.0 2.6
23/07:00pm 22.4 25.2 21.6 95 0.5 ESE 9 13 5 7 1002.9 1001.6 1.8
23/06:30pm 23.1 22.5 20.6 86 1.6 SW 24 33 13 18 1003.2 1001.8 1.4
23/06:14pm 23.5 24.8 20.2 82 2.2 SSW 13 28 7 15 1002.5 1001.1 1.0
23/06:00pm 23.2 22.0 20.0 82 2.1 E 26 39 14 21 1000.4 999.0 1.0
23/05:30pm 22.8 21.5 20.7 88 1.4 SE 28 41 15 22 1000.1 998.7 1.0
23/05:24pm 22.8 21.5 20.7 88 1.4 SE 28 39 15 21 1000.1 998.7 0.8
23/05:00pm 25.3 20.5 19.2 69 4.0 SSE 43 63 23 34 999.0 997.6 0.0
23/04:34pm 29.2 23.3 16.7 46 7.9 WSW 43 69 23 37 998.4 997.0 0.0
23/04:32pm 30.5 25.1 16.1 41 9.1 W 39 69 21 37 998.0 996.6 0.0
23/04:31pm 32.7 27.7 16.1 37 10.5 W 37 69 20 37 998.2 996.8 0.0
23/04:30pm 38.2 32.9 14.1 24 15.1 W 35 61 19 33 997.9 996.5 0.0
23/04:00pm 38.2 33.1 14.7 24 15.0 NNW 35 52 19 28 996.4 995.0 0.0
23/03:30pm 39.2 34.7 14.9 23 15.5 NNW 32 50 17 27 996.7 995.3 0.0
23/03:24pm 39.3 34.6 14.3 22 15.8 NNW 32 50 17 27 996.8 995.4 0.0
23/03:00pm 38.6 34.1 15.0 24 15.1 NNW 32 50 17 27 997.3 995.9 0.0
23/02:57pm 38.3 34.2 14.8 25 14.9 NNW 30 50 16 27 997.3 995.9 0.0
23/02:39pm 39.8 35.7 14.8 23 15.9 N 30 48 16 26 997.4 996.0 0.0
23/02:30pm 38.9 34.4 15.3 25 15.1 N 33 44 18 24 997.7 996.3 0.0
23/02:16pm 39.2 35.9 14.9 23 15.5 NNW 26 50 14 27 998.0 996.6 0.0
23/02:00pm 38.8 34.4 15.2 24 15.1 N 32 43 17 23 998.1 996.7 0.0
23/01:30pm 37.9 35.2 14.5 25 14.8 NNW 22 35 12 19 998.8 997.4 0.0
23/01:00pm 39.2 35.9 14.9 23 15.5 N 26 43 14 23 999.5 998.1 0.0
23/12:30pm 38.0 33.6 15.2 26 14.5 N 32 44 17 24 999.7 998.3 0.0
23/12:00pm 37.6 33.1 14.8 25 14.5 N 32 48 17 26 1000.0 998.6 0.0
23/11:55am 37.5 33.4 15.9 28 13.9 NNE 32 50 17 27 1000.0 998.6 0.0
23/11:30am 37.3 33.1 16.3 29 13.5 N 33 50 18 27 1000.5 999.1 0.0
23/11:00am 36.1 31.2 16.3 31 12.8 N 37 46 20 25 1001.1 999.7 0.0
23/10:30am 34.6 30.3 15.5 32 12.1 N 32 43 17 23 1001.7 1000.3 0.0
23/10:00am 33.2 28.9 14.3 32 11.7 NNW 30 41 16 22 1002.0 1000.6 0.0
23/09:30am 33.2 28.9 14.3 32 11.7 NNW 30 37 16 20 1002.0 1000.6 0.0
23/09:00am 32.5 28.5 15.1 35 10.9 NNW 30 37 16 20 1002.2 1000.8 0.0
23/08:30am 32.3 29.0 14.9 35 10.8 NNW 26 30 14 16 1002.3 1000.9 0.0
23/08:00am 30.0 26.3 14.9 39 9.4 N 28 33 15 18 1002.7 1001.3 0.0
23/07:30am 29.2 25.5 15.0 42 8.7 NNW 28 35 15 19 1002.3 1000.9 0.0
23/07:12am 29.5 27.9 14.9 41 9.0 NW 17 35 9 19 1002.3 1000.9 0.0
23/07:00am 29.4 29.3 14.0 39 9.4 NW 7 11 4 6 1002.3 1000.9 0.0
23/06:30am 29.5 27.4 13.7 38 9.6 WNW 17 26 9 14 1002.2 1000.8 0.0
23/06:00am 28.2 23.8 15.1 44 8.1 N 32 41 17 22 1001.9 1000.5 0.0
23/05:30am 28.4 24.2 14.6 43 8.4 N 30 43 16 23 1002.2 1000.8 0.0
23/05:00am 28.5 22.6 14.7 43 8.5 N 39 48 21 26 1002.3 1000.9 0.0
23/04:30am 28.1 25.0 15.7 46 7.7 NNE 26 35 14 19 1002.7 1001.3 0.0
23/04:00am 27.8 25.5 15.8 48 7.5 NNE 22 24 12 13 1002.9 1001.6 0.0
23/03:30am 28.4 25.3 15.7 46 7.9 N 26 35 14 19 1002.9 1001.6 0.0
23/03:00am 28.6 24.3 15.5 45 8.1 N 32 43 17 23 1002.9 1001.6 0.0
23/02:30am 28.9 24.0 15.4 44 8.4 N 35 43 19 23 1002.6 1001.2 0.0
23/02:12am 29.1 25.4 16.0 45 8.2 N 30 43 16 23 1002.4 1001.0 0.0
23/02:00am 29.5 27.1 14.5 40 9.2 NNE 20 24 11 13 1002.0 1000.6 0.0
23/01:30am 29.6 25.0 14.6 40 9.2 N 32 39 17 21 1002.2 1000.8 0.0
23/01:00am 29.8 26.5 15.1 40 9.1 N 26 32 14 17 1002.1 1000.7 0.0
23/12:30am 30.4 26.1 14.5 38 9.8 N 30 37 16 20 1002.0 1000.6 0.0
23/12:00am 29.9 28.1 14.4 38 9.5 NNE 17 20 9 11 1002.9 1001.6 0.0
 
Date/Time
WST
Temp
°C
App
Temp
°C
Dew
Point
°C
Rel
Hum
%
Delta-T
°C
Wind Press
QNH
hPa
Press
MSL
hPa
Rain since
9am
mm
Dir  Spd
km/h
Gust
km/h
Spd
kts
Gust
kts
22/11:30pm 30.2 29.1 14.3 38 9.7 NNE 13 15 7 8 1003.4 1002.0 0.0
22/11:00pm 30.5 28.8 14.6 38 9.8 N 17 22 9 12 1003.9 1002.5 0.0
22/10:30pm 30.9 28.2 14.5 37 10.1 NW 22 30 12 16 1003.8 1002.4 0.0
22/10:04pm 30.9 26.1 14.5 37 10.1 N 33 52 18 28 1003.3 1001.9 0.0
22/10:00pm 31.2 25.0 13.9 35 10.6 N 39 52 21 28 1003.2 1001.8 0.0
22/09:35pm 32.5 30.1 13.7 32 11.5 N 19 61 10 33 1003.4 1002.0 0.0
22/09:30pm 31.9 31.2 13.2 32 11.3 NW 9 15 5 8 1003.0 1001.7 0.0

Other formats

Comma delimited format used in spreadsheet applications
http://www.bom.gov.au/fwo/IDW60801/IDW60801.95642.axf

JavaScript Object Notation format (JSON) in row-major order
http://www.bom.gov.au/fwo/IDW60801/IDW60801.95642.json

Data quality

Most of these data are generated automatically and are frequently updated. Quality checks on data are not normally performed. It is possible for incorrect values to appear. Refer to information at About Latest Weather Observations and please check the disclaimer before using these data.